Item Display Status Serial CT Sensor

Mooring Depth: 1 m

 

Deployed Sensor

  • Serial Number: 10440
  • NDBC Property Number: 36458
  • Start Date: 12/6/2018 (14:51:27 Z)
  • End Date: Currently Active
Water Temperature [°C]     6 entries per hour
Showing data from 11/19/2019 (14:00:00 Z) to 11/18/2019 (00:00:01 Z)
Previous Next [ Day | 3-Days | 7-Days ]
First Last
Prev [ Day | 3-Days | 7-Days ] Next
First Last

Start Time:     :
End Time:     :     
Time (in GMT) :00 :50 :40 :30 :20 :10
Previous Next [ Day | 3-Days | 7-Days ]
First Last
Prev [ Day | 3-Days | 7-Days ] Next
First Last


123 => good data
MM => data is determined as missing
-- => data not received/configured
Back to Top Back to Top
11/19/2019 14:00 to 13:10 24.070 24.070 24.062 24.066 24.065 24.071
11/19/2019 13:00 to 12:10 24.081 24.074 24.077 24.067 24.073 24.085
11/19/2019 12:00 to 11:10 24.084 24.093 24.101 24.102 24.101 24.094
11/19/2019 11:00 to 10:10 24.097 24.096 24.097 24.092 24.114 24.115
11/19/2019 10:00 to 9:10 24.120 24.122 24.123 24.121 24.112 24.110
11/19/2019 09:00 to 8:10 24.114 24.122 24.125 24.133 24.132 24.132
11/19/2019 08:00 to 7:10 24.134 24.130 24.139 24.131 24.127 24.132
11/19/2019 07:00 to 6:10 24.127 24.134 24.132 24.136 24.120 24.124
11/19/2019 06:00 to 5:10 24.128 24.133 24.112 24.110 24.124 24.129
11/19/2019 05:00 to 4:10 24.132 24.135 24.135 24.133 24.129 24.122
11/19/2019 04:00 to 3:10 24.129 24.135 24.136 24.139 24.156 24.152
11/19/2019 03:00 to 2:10 24.138 24.142 24.151 24.166 24.156 24.158
11/19/2019 02:00 to 1:10 24.158 24.166 24.187 24.196 24.210 24.228
11/19/2019 01:00 to 0:10 24.226 24.235 24.236 24.239 24.255 24.252
11/19/2019 00:00 to 23:10 24.237 24.254 24.288 24.297 24.303 24.287
11/18/2019 23:00 to 22:10 24.294 24.283 24.293 24.276 24.290 24.280
11/18/2019 22:00 to 21:10 24.317 24.320 24.298 24.303 24.300 24.286
11/18/2019 21:00 to 20:10 24.281 24.285 24.270 24.265 24.278 24.263
11/18/2019 20:00 to 19:10 24.252 24.247 24.241 24.222 24.195 24.176
11/18/2019 19:00 to 18:10 24.187 24.165 24.150 24.145 24.140 24.116
11/18/2019 18:00 to 17:10 24.113 24.106 24.090 24.071 24.058 24.043
11/18/2019 17:00 to 16:10 24.032 24.025 24.023 24.018 23.995 23.986
11/18/2019 16:00 to 15:10 23.969 23.973 23.949 23.949 23.931 23.916
11/18/2019 15:00 to 14:10 23.934 23.931 23.922 23.929 23.930 23.932
11/18/2019 14:00 to 13:10 23.928 23.938 23.934 23.937 23.937 23.927
11/18/2019 13:00 to 12:10 23.930 23.923 23.928 23.930 23.937 23.930
11/18/2019 12:00 to 11:10 23.929 23.947 23.959 23.958 23.958 23.955
11/18/2019 11:00 to 10:10 23.963 23.958 23.959 23.954 23.948 23.947
11/18/2019 10:00 to 9:10 23.955 23.962 23.963 23.956 23.953 23.946
11/18/2019 09:00 to 8:10 23.955 23.958 23.966 23.964 23.973 23.964
11/18/2019 08:00 to 7:10 23.958 23.963 23.967 23.952 23.971 23.985
11/18/2019 07:00 to 6:10 23.979 23.973 23.972 23.972 23.965 23.966
11/18/2019 06:00 to 5:10 23.967 23.962 23.974 23.965 23.960 23.959
11/18/2019 05:00 to 4:10 23.952 23.953 23.967 23.963 23.957 23.948
11/18/2019 04:00 to 3:10 23.946 23.949 23.946 23.949 23.959 23.951
11/18/2019 03:00 to 2:10 23.961 23.957 23.962 23.979 23.972 23.969
11/18/2019 02:00 to 1:10 23.963 23.974 23.996 23.998 24.001 24.017
11/18/2019 01:00 to 0:10 24.012 24.029 24.030 24.027 24.048 24.059

 

 

 

Conductivity [S/m]     6 entries per hour
Showing data from 7/25/2019 (14:40:00 Z) to 7/24/2019 (00:00:01 Z)
Previous Next [ Day | 3-Days | 7-Days ]
First Last
Prev [ Day | 3-Days | 7-Days ] Next
First Last

Start Time:     :
End Time:     :     
Time (in GMT) :00 :50 :40 :30 :20 :10
Previous Next [ Day | 3-Days | 7-Days ]
First Last
Prev [ Day | 3-Days | 7-Days ] Next
First Last


123 => good data
MM => data is determined as missing
-- => data not received/configured
Back to Top Back to Top
7/25/2019 15:00 to 14:10 -- -- 5.07960 5.07911 5.07961 5.08357
7/25/2019 14:00 to 13:10 5.08129 5.08424 5.08704 5.08890 5.09222 5.09375
7/25/2019 13:00 to 12:10 5.09794 5.09967 5.09931 5.10150 5.10182 5.10311
7/25/2019 12:00 to 11:10 5.10371 5.10564 5.10662 5.10642 5.10818 5.11304
7/25/2019 11:00 to 10:10 5.11311 5.11521 5.11710 5.11788 5.11882 5.12132
7/25/2019 10:00 to 9:10 5.12233 5.12480 5.12636 5.12648 5.12627 5.12876
7/25/2019 09:00 to 8:10 5.13081 5.13018 5.13120 5.13252 5.13482 5.13561
7/25/2019 08:00 to 7:10 5.13706 5.13701 5.13781 5.13856 5.13856 5.13903
7/25/2019 07:00 to 6:10 5.13995 5.13974 5.14152 5.14282 5.14267 5.14481
7/25/2019 06:00 to 5:10 5.14616 5.14527 5.14615 5.14638 5.14552 5.14535
7/25/2019 05:00 to 4:10 5.14716 5.14560 5.14720 5.14630 5.14652 5.14734
7/25/2019 04:00 to 3:10 5.14903 5.14809 5.14910 5.15085 5.14897 5.15052
7/25/2019 03:00 to 2:10 5.15263 5.15441 5.15296 5.15591 5.15529 5.15728
7/25/2019 02:00 to 1:10 5.16230 5.16188 5.16169 5.16487 5.16586 5.16606
7/25/2019 01:00 to 0:10 5.16591 5.16704 5.16964 5.17202 5.17391 5.17460
7/25/2019 00:00 to 23:10 5.17316 5.17084 5.17364 5.17220 5.17113 5.16996
7/24/2019 23:00 to 22:10 5.17089 5.17044 5.17119 5.16968 5.17054 5.16909
7/24/2019 22:00 to 21:10 5.16902 5.17045 5.17305 5.17155 5.17067 5.16828
7/24/2019 21:00 to 20:10 5.16638 5.16618 5.16704 5.16539 5.16724 5.16415
7/24/2019 20:00 to 19:10 5.16278 5.16666 5.16541 5.16520 5.16387 5.16499
7/24/2019 19:00 to 18:10 5.16457 5.16408 5.16434 5.16443 5.16577 5.16475
7/24/2019 18:00 to 17:10 5.16360 5.16546 5.16294 5.16460 5.16137 5.16047
7/24/2019 17:00 to 16:10 5.16031 5.15877 5.15874 5.15696 5.15675 5.15681
7/24/2019 16:00 to 15:10 5.15661 5.15677 5.15691 5.15683 5.15684 5.15689
7/24/2019 15:00 to 14:10 5.15682 5.15688 5.15726 5.15757 5.15721 5.15758
7/24/2019 14:00 to 13:10 5.15721 5.15808 5.15848 5.15850 5.15930 5.15998
7/24/2019 13:00 to 12:10 5.15947 5.15991 5.15953 5.16014 5.16027 5.16055
7/24/2019 12:00 to 11:10 5.16095 5.16046 5.16114 5.16115 5.16204 5.16176
7/24/2019 11:00 to 10:10 5.16202 5.16212 5.16197 5.16287 5.16303 5.16399
7/24/2019 10:00 to 9:10 5.16464 5.16488 5.16504 5.16492 5.16591 5.16679
7/24/2019 09:00 to 8:10 5.16701 5.16785 5.16844 5.16914 5.16958 5.16896
7/24/2019 08:00 to 7:10 5.16966 5.17125 5.17173 5.17339 5.17316 5.17556
7/24/2019 07:00 to 6:10 5.17484 5.17601 5.17839 5.17800 5.17819 5.17922
7/24/2019 06:00 to 5:10 5.18006 5.18074 5.18081 5.18191 5.18226 5.18326
7/24/2019 05:00 to 4:10 5.18296 5.18333 5.18359 5.18379 5.18462 5.18501
7/24/2019 04:00 to 3:10 5.18519 5.18669 5.18734 5.18776 5.18781 5.18986
7/24/2019 03:00 to 2:10 5.19057 5.19153 5.19123 5.19118 5.19198 5.19202
7/24/2019 02:00 to 1:10 5.19301 5.19313 5.19398 5.19459 5.19468 5.19465
7/24/2019 01:00 to 0:10 5.19594 5.19598 5.19673 5.19734 5.19882 5.19850

 

 

 

Salinity [psu]     6 entries per hour
Showing data from 7/25/2019 (14:20:00 Z) to 7/24/2019 (00:00:01 Z)
Previous Next [ Day | 3-Days | 7-Days ]
First Last
Prev [ Day | 3-Days | 7-Days ] Next
First Last

Start Time:     :
End Time:     :     
Time (in GMT) :00 :50 :40 :30 :20 :10
Previous Next [ Day | 3-Days | 7-Days ]
First Last
Prev [ Day | 3-Days | 7-Days ] Next
First Last


123 => good data
MM => data is determined as missing
-- => data not received/configured
Back to Top Back to Top
7/25/2019 15:00 to 14:10 -- -- -- -- 34.86 34.87
7/25/2019 14:00 to 13:10 34.87 34.87 34.88 34.88 34.88 34.88
7/25/2019 13:00 to 12:10 34.89 34.89 34.89 34.89 34.89 34.89
7/25/2019 12:00 to 11:10 34.89 34.89 34.89 34.89 34.89 34.89
7/25/2019 11:00 to 10:10 34.88 34.89 34.88 34.89 34.89 34.89
7/25/2019 10:00 to 9:10 34.88 34.89 34.89 34.89 34.89 34.89
7/25/2019 09:00 to 8:10 34.89 34.88 34.88 34.88 34.89 34.89
7/25/2019 08:00 to 7:10 34.89 34.89 34.89 34.89 34.88 34.88
7/25/2019 07:00 to 6:10 34.88 34.87 34.86 34.87 34.87 34.87
7/25/2019 06:00 to 5:10 34.88 34.87 34.86 34.86 34.85 34.85
7/25/2019 05:00 to 4:10 34.85 34.85 34.83 34.83 34.83 34.84
7/25/2019 04:00 to 3:10 34.84 34.83 34.84 34.84 34.84 34.84
7/25/2019 03:00 to 2:10 34.84 34.86 34.84 34.85 34.83 34.84
7/25/2019 02:00 to 1:10 34.86 34.86 34.86 34.87 34.87 34.87
7/25/2019 01:00 to 0:10 34.86 34.87 34.88 34.89 34.90 34.90
7/25/2019 00:00 to 23:10 34.89 34.88 34.88 34.88 34.87 34.86
7/24/2019 23:00 to 22:10 34.88 34.88 34.88 34.87 34.87 34.86
7/24/2019 22:00 to 21:10 34.88 34.89 34.89 34.89 34.89 34.90
7/24/2019 21:00 to 20:10 34.89 34.89 34.90 34.90 34.89 34.88
7/24/2019 20:00 to 19:10 34.88 34.90 34.90 34.91 34.91 34.91
7/24/2019 19:00 to 18:10 34.92 34.91 34.92 34.92 34.92 34.92
7/24/2019 18:00 to 17:10 34.93 34.93 34.93 34.93 34.92 34.93
7/24/2019 17:00 to 16:10 34.93 34.93 34.93 34.93 34.93 34.93
7/24/2019 16:00 to 15:10 34.93 34.93 34.93 34.93 34.93 34.93
7/24/2019 15:00 to 14:10 34.93 34.93 34.93 34.93 34.92 34.93
7/24/2019 14:00 to 13:10 34.93 34.93 34.93 34.93 34.93 34.93
7/24/2019 13:00 to 12:10 34.93 34.92 34.92 34.92 34.92 34.92
7/24/2019 12:00 to 11:10 34.92 34.92 34.92 34.92 34.92 34.92
7/24/2019 11:00 to 10:10 34.92 34.92 34.92 34.92 34.92 --
7/24/2019 10:00 to 9:10 34.93 34.92 34.93 34.93 34.92 34.93
7/24/2019 09:00 to 8:10 34.92 34.93 34.93 34.93 34.93 34.93
7/24/2019 08:00 to 7:10 34.93 34.93 34.93 34.93 34.93 34.93
7/24/2019 07:00 to 6:10 34.93 34.93 34.93 34.93 34.93 34.93
7/24/2019 06:00 to 5:10 34.93 34.93 34.93 34.93 34.93 34.93
7/24/2019 05:00 to 4:10 34.93 34.93 34.93 34.93 34.93 34.93
7/24/2019 04:00 to 3:10 34.93 34.93 34.93 34.93 34.93 34.93
7/24/2019 03:00 to 2:10 34.93 34.93 34.93 34.93 34.93 34.92
7/24/2019 02:00 to 1:10 34.93 34.92 34.92 34.92 34.92 34.92
7/24/2019 01:00 to 0:10 34.92 34.92 34.92 34.92 34.92 34.92